sensor_id;sensor_type;location;lat;lon;timestamp;temperature;humidity
33673;DHT22;20011;51.510;9.942;2023-03-01T00:02:21;4.20;96.10
33673;DHT22;20011;51.510;9.942;2023-03-01T00:04:48;1.10;95.90
33673;DHT22;20011;51.510;9.942;2023-03-01T00:07:15;1.20;95.40
33673;DHT22;20011;51.510;9.942;2023-03-01T00:09:42;1.10;95.70
33673;DHT22;20011;51.510;9.942;2023-03-01T00:12:12;4.80;96.70
33673;DHT22;20011;51.510;9.942;2023-03-01T00:14:39;0.90;95.60
33673;DHT22;20011;51.510;9.942;2023-03-01T00:17:06;1.20;95.40
33673;DHT22;20011;51.510;9.942;2023-03-01T00:19:33;0.80;95.50
33673;DHT22;20011;51.510;9.942;2023-03-01T00:21:59;1.20;96.40
33673;DHT22;20011;51.510;9.942;2023-03-01T00:24:26;0.30;95.20
33673;DHT22;20011;51.510;9.942;2023-03-01T00:26:54;5.00;96.30
33673;DHT22;20011;51.510;9.942;2023-03-01T00:29:23;0.80;94.90
33673;DHT22;20011;51.510;9.942;2023-03-01T00:31:50;1.60;94.60
33673;DHT22;20011;51.510;9.942;2023-03-01T00:34:17;0.70;94.90
33673;DHT22;20011;51.510;9.942;2023-03-01T00:36:44;1.30;95.30
33673;DHT22;20011;51.510;9.942;2023-03-01T00:39:12;1.20;95.50
33673;DHT22;20011;51.510;9.942;2023-03-01T00:41:39;1.20;94.80
33673;DHT22;20011;51.510;9.942;2023-03-01T00:44:07;0.20;95.00
33673;DHT22;20011;51.510;9.942;2023-03-01T00:46:34;0.70;94.70
33673;DHT22;20011;51.510;9.942;2023-03-01T00:49:02;0.60;95.80
33673;DHT22;20011;51.510;9.942;2023-03-01T00:51:29;1.10;95.80
33673;DHT22;20011;51.510;9.942;2023-03-01T00:53:57;0.40;95.80
33673;DHT22;20011;51.510;9.942;2023-03-01T00:56:25;1.00;95.80
33673;DHT22;20011;51.510;9.942;2023-03-01T00:58:52;0.30;95.90
33673;DHT22;20011;51.510;9.942;2023-03-01T01:01:20;3.30;97.00
33673;DHT22;20011;51.510;9.942;2023-03-01T01:03:49;0.50;96.30
33673;DHT22;20011;51.510;9.942;2023-03-01T01:08:47;1.10;96.80
33673;DHT22;20011;51.510;9.942;2023-03-01T01:11:14;3.70;97.30
33673;DHT22;20011;51.510;9.942;2023-03-01T01:13:41;0.10;96.60
33673;DHT22;20011;51.510;9.942;2023-03-01T01:16:08;1.70;97.10
33673;DHT22;20011;51.510;9.942;2023-03-01T01:18:35;4.00;97.70
33673;DHT22;20011;51.510;9.942;2023-03-01T01:21:05;0.00;96.80
33673;DHT22;20011;51.510;9.942;2023-03-01T01:23:32;0.70;97.00
33673;DHT22;20011;51.510;9.942;2023-03-01T01:26:07;3.20;99.10
33673;DHT22;20011;51.510;9.942;2023-03-01T01:28:34;-1.50;97.20
33673;DHT22;20011;51.510;9.942;2023-03-01T01:31:02;3.30;98.40
33673;DHT22;20011;51.510;9.942;2023-03-01T01:33:29;0.50;98.00
33673;DHT22;20011;51.510;9.942;2023-03-01T01:35:56;3.30;99.50
33673;DHT22;20011;51.510;9.942;2023-03-01T01:38:22;0.20;98.60
33673;DHT22;20011;51.510;9.942;2023-03-01T01:40:49;2.90;99.60
33673;DHT22;20011;51.510;9.942;2023-03-01T01:43:36;0.40;98.10
33673;DHT22;20011;51.510;9.942;2023-03-01T01:46:10;0.90;97.80
33673;DHT22;20011;51.510;9.942;2023-03-01T01:48:48;1.10;97.80
33673;DHT22;20011;51.510;9.942;2023-03-01T01:51:18;1.10;97.50
33673;DHT22;20011;51.510;9.942;2023-03-01T01:53:47;1.70;98.00
33673;DHT22;20011;51.510;9.942;2023-03-01T01:56:14;1.20;98.50
33673;DHT22;20011;51.510;9.942;2023-03-01T01:58:42;1.10;97.00
33673;DHT22;20011;51.510;9.942;2023-03-01T02:01:10;3.70;97.10
33673;DHT22;20011;51.510;9.942;2023-03-01T02:03:38;4.30;97.70
33673;DHT22;20011;51.510;9.942;2023-03-01T02:06:22;4.00;96.60
33673;DHT22;20011;51.510;9.942;2023-03-01T02:08:50;-0.80;95.30
33673;DHT22;20011;51.510;9.942;2023-03-01T02:11:18;-0.10;95.70
33673;DHT22;20011;51.510;9.942;2023-03-01T02:13:47;4.00;97.00
33673;DHT22;20011;51.510;9.942;2023-03-01T02:16:15;4.20;97.30
33673;DHT22;20011;51.510;9.942;2023-03-01T02:18:42;2.40;96.90
33673;DHT22;20011;51.510;9.942;2023-03-01T02:23:40;-1.80;96.40
33673;DHT22;20011;51.510;9.942;2023-03-01T02:28:37;-0.20;98.30
33673;DHT22;20011;51.510;9.942;2023-03-01T02:31:04;0.10;98.10
33673;DHT22;20011;51.510;9.942;2023-03-01T02:33:50;3.30;99.30
33673;DHT22;20011;51.510;9.942;2023-03-01T02:36:19;-0.30;98.40
33673;DHT22;20011;51.510;9.942;2023-03-01T02:38:47;0.80;99.20
33673;DHT22;20011;51.510;9.942;2023-03-01T02:41:15;3.50;99.90
33673;DHT22;20011;51.510;9.942;2023-03-01T02:43:42;2.60;99.60
33673;DHT22;20011;51.510;9.942;2023-03-01T02:46:20;0.10;99.10
33673;DHT22;20011;51.510;9.942;2023-03-01T02:48:50;0.50;98.80
33673;DHT22;20011;51.510;9.942;2023-03-01T02:54:10;2.70;99.50
33673;DHT22;20011;51.510;9.942;2023-03-01T02:56:38;0.00;98.50
33673;DHT22;20011;51.510;9.942;2023-03-01T02:59:05;3.10;99.90
33673;DHT22;20011;51.510;9.942;2023-03-01T03:01:34;-0.80;98.20
33673;DHT22;20011;51.510;9.942;2023-03-01T03:04:08;0.00;98.40
33673;DHT22;20011;51.510;9.942;2023-03-01T03:06:37;-1.10;97.50
33673;DHT22;20011;51.510;9.942;2023-03-01T03:09:04;2.80;99.10
33673;DHT22;20011;51.510;9.942;2023-03-01T03:11:30;3.70;98.80
33673;DHT22;20011;51.510;9.942;2023-03-01T03:13:59;3.70;99.50
33673;DHT22;20011;51.510;9.942;2023-03-01T03:16:29;2.70;98.80
33673;DHT22;20011;51.510;9.942;2023-03-01T03:18:57;3.20;99.40
33673;DHT22;20011;51.510;9.942;2023-03-01T03:21:32;4.40;98.20
33673;DHT22;20011;51.510;9.942;2023-03-01T03:23:59;1.80;97.20
33673;DHT22;20011;51.510;9.942;2023-03-01T03:26:26;-0.20;97.30
33673;DHT22;20011;51.510;9.942;2023-03-01T03:28:53;3.70;99.50
33673;DHT22;20011;51.510;9.942;2023-03-01T03:31:20;3.30;98.50
33673;DHT22;20011;51.510;9.942;2023-03-01T03:33:47;1.80;99.10
33673;DHT22;20011;51.510;9.942;2023-03-01T03:36:17;2.20;99.10
33673;DHT22;20011;51.510;9.942;2023-03-01T03:38:44;0.00;97.50
33673;DHT22;20011;51.510;9.942;2023-03-01T03:41:12;2.80;97.60
33673;DHT22;20011;51.510;9.942;2023-03-01T03:43:40;0.70;97.70
33673;DHT22;20011;51.510;9.942;2023-03-01T03:46:07;3.00;98.30
33673;DHT22;20011;51.510;9.942;2023-03-01T03:48:38;1.90;98.70
33673;DHT22;20011;51.510;9.942;2023-03-01T03:51:05;2.20;98.10
33673;DHT22;20011;51.510;9.942;2023-03-01T03:53:33;3.20;98.70
33673;DHT22;20011;51.510;9.942;2023-03-01T03:56:00;-0.50;97.30
33673;DHT22;20011;51.510;9.942;2023-03-01T03:58:26;3.20;99.10
33673;DHT22;20011;51.510;9.942;2023-03-01T04:00:54;0.20;98.20
33673;DHT22;20011;51.510;9.942;2023-03-01T04:03:25;0.20;97.20
33673;DHT22;20011;51.510;9.942;2023-03-01T04:05:52;3.40;97.50
33673;DHT22;20011;51.510;9.942;2023-03-01T04:08:20;1.40;98.10
33673;DHT22;20011;51.510;9.942;2023-03-01T04:10:48;2.80;97.70
33673;DHT22;20011;51.510;9.942;2023-03-01T04:13:18;0.20;96.90
33673;DHT22;20011;51.510;9.942;2023-03-01T04:15:48;-0.60;97.40
33673;DHT22;20011;51.510;9.942;2023-03-01T04:18:15;0.90;98.30
33673;DHT22;20011;51.510;9.942;2023-03-01T04:20:42;3.70;98.40
33673;DHT22;20011;51.510;9.942;2023-03-01T04:26:01;-0.10;97.20
33673;DHT22;20011;51.510;9.942;2023-03-01T04:28:36;1.90;98.70
33673;DHT22;20011;51.510;9.942;2023-03-01T04:31:04;-0.50;97.40
33673;DHT22;20011;51.510;9.942;2023-03-01T04:33:40;-1.00;97.80
33673;DHT22;20011;51.510;9.942;2023-03-01T04:36:08;-1.30;97.80
33673;DHT22;20011;51.510;9.942;2023-03-01T04:38:36;-0.20;98.40
33673;DHT22;20011;51.510;9.942;2023-03-01T04:41:04;-0.10;97.80
33673;DHT22;20011;51.510;9.942;2023-03-01T04:43:31;0.00;98.00
33673;DHT22;20011;51.510;9.942;2023-03-01T04:46:02;-0.70;97.40
33673;DHT22;20011;51.510;9.942;2023-03-01T04:48:30;-1.80;97.20
33673;DHT22;20011;51.510;9.942;2023-03-01T04:51:00;-0.70;97.70
33673;DHT22;20011;51.510;9.942;2023-03-01T04:53:27;0.70;98.30
33673;DHT22;20011;51.510;9.942;2023-03-01T04:55:55;2.80;98.60
33673;DHT22;20011;51.510;9.942;2023-03-01T04:58:23;0.00;97.80
33673;DHT22;20011;51.510;9.942;2023-03-01T05:00:50;3.60;98.20
33673;DHT22;20011;51.510;9.942;2023-03-01T05:03:19;0.90;98.50
33673;DHT22;20011;51.510;9.942;2023-03-01T05:05:49;0.00;97.70
33673;DHT22;20011;51.510;9.942;2023-03-01T05:08:17;-0.20;97.70
33673;DHT22;20011;51.510;9.942;2023-03-01T05:10:53;2.70;99.40
33673;DHT22;20011;51.510;9.942;2023-03-01T05:13:21;2.50;99.60
33673;DHT22;20011;51.510;9.942;2023-03-01T05:15:49;0.60;99.90
33673;DHT22;20011;51.510;9.942;2023-03-01T05:18:20;-0.80;99.70
33673;DHT22;20011;51.510;9.942;2023-03-01T05:20:47;2.80;99.90
33673;DHT22;20011;51.510;9.942;2023-03-01T05:23:17;0.10;99.90
33673;DHT22;20011;51.510;9.942;2023-03-01T05:25:45;2.30;99.90
33673;DHT22;20011;51.510;9.942;2023-03-01T05:28:15;-0.60;99.90
33673;DHT22;20011;51.510;9.942;2023-03-01T05:30:42;-2.20;99.90
33673;DHT22;20011;51.510;9.942;2023-03-01T05:33:08;-0.50;99.90
33673;DHT22;20011;51.510;9.942;2023-03-01T05:35:42;0.20;99.90
33673;DHT22;20011;51.510;9.942;2023-03-01T05:38:12;-0.10;99.20
33673;DHT22;20011;51.510;9.942;2023-03-01T05:40:46;0.00;99.00
33673;DHT22;20011;51.510;9.942;2023-03-01T05:43:14;-0.10;98.30
33673;DHT22;20011;51.510;9.942;2023-03-01T05:45:42;1.80;97.90
33673;DHT22;20011;51.510;9.942;2023-03-01T05:48:09;-0.30;97.90
33673;DHT22;20011;51.510;9.942;2023-03-01T05:50:43;2.40;97.90
33673;DHT22;20011;51.510;9.942;2023-03-01T05:53:12;-3.10;96.30
33673;DHT22;20011;51.510;9.942;2023-03-01T05:55:41;-0.50;97.00
33673;DHT22;20011;51.510;9.942;2023-03-01T05:58:18;-0.10;97.10
33673;DHT22;20011;51.510;9.942;2023-03-01T06:00:46;-0.20;97.00
33673;DHT22;20011;51.510;9.942;2023-03-01T06:03:15;-0.90;97.10
33673;DHT22;20011;51.510;9.942;2023-03-01T06:05:43;-0.90;97.20
33673;DHT22;20011;51.510;9.942;2023-03-01T06:08:12;-0.30;97.30
33673;DHT22;20011;51.510;9.942;2023-03-01T06:10:39;-0.20;96.80
33673;DHT22;20011;51.510;9.942;2023-03-01T06:13:07;-0.30;97.10
33673;DHT22;20011;51.510;9.942;2023-03-01T06:15:34;-0.50;96.90
33673;DHT22;20011;51.510;9.942;2023-03-01T06:18:01;-0.40;96.90
33673;DHT22;20011;51.510;9.942;2023-03-01T06:20:28;2.80;98.30
33673;DHT22;20011;51.510;9.942;2023-03-01T06:22:55;2.90;97.90
33673;DHT22;20011;51.510;9.942;2023-03-01T06:25:24;2.90;97.40
33673;DHT22;20011;51.510;9.942;2023-03-01T06:27:53;0.90;97.80
33673;DHT22;20011;51.510;9.942;2023-03-01T06:30:21;2.10;99.90
33673;DHT22;20011;51.510;9.942;2023-03-01T06:32:48;2.30;98.30
33673;DHT22;20011;51.510;9.942;2023-03-01T06:35:15;2.10;98.60
33673;DHT22;20011;51.510;9.942;2023-03-01T06:37:46;0.60;97.70
33673;DHT22;20011;51.510;9.942;2023-03-01T06:40:14;2.90;98.50
33673;DHT22;20011;51.510;9.942;2023-03-01T06:42:42;-0.20;97.80
33673;DHT22;20011;51.510;9.942;2023-03-01T06:45:10;-2.40;97.70
33673;DHT22;20011;51.510;9.942;2023-03-01T06:47:37;-0.50;97.90
33673;DHT22;20011;51.510;9.942;2023-03-01T06:50:04;-0.60;98.10
33673;DHT22;20011;51.510;9.942;2023-03-01T06:52:31;-0.50;98.30
33673;DHT22;20011;51.510;9.942;2023-03-01T06:54:58;3.10;99.90
33673;DHT22;20011;51.510;9.942;2023-03-01T06:57:25;-1.90;98.20
33673;DHT22;20011;51.510;9.942;2023-03-01T06:59:51;3.40;99.90
33673;DHT22;20011;51.510;9.942;2023-03-01T07:02:18;-1.30;98.20
33673;DHT22;20011;51.510;9.942;2023-03-01T07:04:45;0.80;99.20
33673;DHT22;20011;51.510;9.942;2023-03-01T07:07:12;-0.30;98.70
33673;DHT22;20011;51.510;9.942;2023-03-01T07:09:39;3.50;99.90
33673;DHT22;20011;51.510;9.942;2023-03-01T07:12:06;2.50;99.40
33673;DHT22;20011;51.510;9.942;2023-03-01T07:14:33;0.00;98.70
33673;DHT22;20011;51.510;9.942;2023-03-01T07:17:00;-0.20;98.70
33673;DHT22;20011;51.510;9.942;2023-03-01T07:19:27;0.00;99.30
33673;DHT22;20011;51.510;9.942;2023-03-01T07:21:53;-0.10;99.70
33673;DHT22;20011;51.510;9.942;2023-03-01T07:24:22;2.40;99.90
33673;DHT22;20011;51.510;9.942;2023-03-01T07:26:49;3.20;99.90
33673;DHT22;20011;51.510;9.942;2023-03-01T07:29:17;3.10;99.90
33673;DHT22;20011;51.510;9.942;2023-03-01T07:31:44;1.70;99.90
33673;DHT22;20011;51.510;9.942;2023-03-01T07:34:11;-1.10;99.90
33673;DHT22;20011;51.510;9.942;2023-03-01T07:36:38;3.10;99.90
33673;DHT22;20011;51.510;9.942;2023-03-01T07:39:06;-0.90;99.90
33673;DHT22;20011;51.510;9.942;2023-03-01T07:41:33;1.10;99.90
33673;DHT22;20011;51.510;9.942;2023-03-01T07:43:59;-0.70;99.90
33673;DHT22;20011;51.510;9.942;2023-03-01T07:46:26;3.40;99.90
33673;DHT22;20011;51.510;9.942;2023-03-01T07:48:54;3.20;99.90
33673;DHT22;20011;51.510;9.942;2023-03-01T07:51:20;3.70;99.90
33673;DHT22;20011;51.510;9.942;2023-03-01T07:53:48;1.70;99.90
33673;DHT22;20011;51.510;9.942;2023-03-01T07:56:15;1.10;99.90
33673;DHT22;20011;51.510;9.942;2023-03-01T07:58:44;3.30;99.90
33673;DHT22;20011;51.510;9.942;2023-03-01T08:01:12;3.20;99.90
33673;DHT22;20011;51.510;9.942;2023-03-01T08:03:39;-0.30;99.90
33673;DHT22;20011;51.510;9.942;2023-03-01T08:06:08;1.00;99.90
33673;DHT22;20011;51.510;9.942;2023-03-01T08:08:35;4.40;99.90
33673;DHT22;20011;51.510;9.942;2023-03-01T08:11:03;-1.50;99.90
33673;DHT22;20011;51.510;9.942;2023-03-01T08:13:30;2.30;99.90
33673;DHT22;20011;51.510;9.942;2023-03-01T08:16:01;0.40;99.90
33673;DHT22;20011;51.510;9.942;2023-03-01T08:18:28;0.60;99.90
33673;DHT22;20011;51.510;9.942;2023-03-01T08:20:55;3.30;99.90
33673;DHT22;20011;51.510;9.942;2023-03-01T08:23:22;0.90;99.90
33673;DHT22;20011;51.510;9.942;2023-03-01T08:25:49;3.50;99.90
33673;DHT22;20011;51.510;9.942;2023-03-01T08:28:16;4.50;99.90
33673;DHT22;20011;51.510;9.942;2023-03-01T08:30:42;0.40;99.90
33673;DHT22;20011;51.510;9.942;2023-03-01T08:33:09;4.30;99.90
33673;DHT22;20011;51.510;9.942;2023-03-01T08:35:36;2.50;99.90
33673;DHT22;20011;51.510;9.942;2023-03-01T08:38:03;4.70;99.90
33673;DHT22;20011;51.510;9.942;2023-03-01T08:40:30;3.40;99.90
33673;DHT22;20011;51.510;9.942;2023-03-01T08:42:58;1.50;99.90
33673;DHT22;20011;51.510;9.942;2023-03-01T08:45:25;0.60;99.90
33673;DHT22;20011;51.510;9.942;2023-03-01T08:47:52;4.10;99.90
33673;DHT22;20011;51.510;9.942;2023-03-01T08:50:19;3.50;99.90
33673;DHT22;20011;51.510;9.942;2023-03-01T08:52:46;-0.90;99.90
33673;DHT22;20011;51.510;9.942;2023-03-01T08:55:13;4.50;99.90
33673;DHT22;20011;51.510;9.942;2023-03-01T08:57:41;1.80;99.90
33673;DHT22;20011;51.510;9.942;2023-03-01T09:00:08;4.40;99.90
33673;DHT22;20011;51.510;9.942;2023-03-01T09:02:35;1.60;99.90
33673;DHT22;20011;51.510;9.942;2023-03-01T09:05:02;2.40;99.90
33673;DHT22;20011;51.510;9.942;2023-03-01T09:07:29;1.70;99.90
33673;DHT22;20011;51.510;9.942;2023-03-01T09:09:56;3.90;99.90
33673;DHT22;20011;51.510;9.942;2023-03-01T09:12:23;5.20;99.90
33673;DHT22;20011;51.510;9.942;2023-03-01T09:14:51;4.70;99.90
33673;DHT22;20011;51.510;9.942;2023-03-01T09:17:18;2.50;99.90
33673;DHT22;20011;51.510;9.942;2023-03-01T09:19:48;5.00;99.90
33673;DHT22;20011;51.510;9.942;2023-03-01T09:22:15;4.10;99.90
33673;DHT22;20011;51.510;9.942;2023-03-01T09:24:42;5.10;99.90
33673;DHT22;20011;51.510;9.942;2023-03-01T09:27:09;5.00;99.90
33673;DHT22;20011;51.510;9.942;2023-03-01T09:29:36;1.60;99.90
33673;DHT22;20011;51.510;9.942;2023-03-01T09:32:03;2.10;99.90
33673;DHT22;20011;51.510;9.942;2023-03-01T09:34:30;2.20;99.90
33673;DHT22;20011;51.510;9.942;2023-03-01T09:36:57;1.90;99.90
33673;DHT22;20011;51.510;9.942;2023-03-01T09:39:24;6.00;99.90
33673;DHT22;20011;51.510;9.942;2023-03-01T09:46:45;4.30;99.90
33673;DHT22;20011;51.510;9.942;2023-03-01T09:49:17;0.80;99.00
33673;DHT22;20011;51.510;9.942;2023-03-01T09:51:56;5.50;99.70
33673;DHT22;20011;51.510;9.942;2023-03-01T09:54:24;5.30;99.50
33673;DHT22;20011;51.510;9.942;2023-03-01T09:56:53;1.80;99.10
33673;DHT22;20011;51.510;9.942;2023-03-01T09:59:25;4.20;99.10
33673;DHT22;20011;51.510;9.942;2023-03-01T10:09:23;2.80;98.90
33673;DHT22;20011;51.510;9.942;2023-03-01T10:11:52;5.60;98.60
33673;DHT22;20011;51.510;9.942;2023-03-01T10:14:34;6.20;96.40
33673;DHT22;20011;51.510;9.942;2023-03-01T10:17:03;2.90;95.30
33673;DHT22;20011;51.510;9.942;2023-03-01T10:19:41;2.10;95.10
33673;DHT22;20011;51.510;9.942;2023-03-01T10:24:48;1.20;94.00
33673;DHT22;20011;51.510;9.942;2023-03-01T10:27:21;2.40;93.90
33673;DHT22;20011;51.510;9.942;2023-03-01T10:30:01;2.50;93.70
33673;DHT22;20011;51.510;9.942;2023-03-01T10:32:31;5.70;94.80
33673;DHT22;20011;51.510;9.942;2023-03-01T10:34:58;4.10;95.30
33673;DHT22;20011;51.510;9.942;2023-03-01T10:37:25;5.90;96.40
33673;DHT22;20011;51.510;9.942;2023-03-01T10:40:12;1.40;94.00
33673;DHT22;20011;51.510;9.942;2023-03-01T10:42:40;3.40;93.90
33673;DHT22;20011;51.510;9.942;2023-03-01T10:47:45;3.40;93.40
33673;DHT22;20011;51.510;9.942;2023-03-01T10:50:22;3.50;93.90
33673;DHT22;20011;51.510;9.942;2023-03-01T10:52:56;3.50;93.90
33673;DHT22;20011;51.510;9.942;2023-03-01T10:55:31;2.20;93.00
33673;DHT22;20011;51.510;9.942;2023-03-01T10:58:19;3.60;92.80
33673;DHT22;20011;51.510;9.942;2023-03-01T11:01:32;1.80;92.10
33673;DHT22;20011;51.510;9.942;2023-03-01T11:03:35;3.60;92.90
33673;DHT22;20011;51.510;9.942;2023-03-01T11:06:04;6.50;93.70
33673;DHT22;20011;51.510;9.942;2023-03-01T11:08:40;6.10;93.10
33673;DHT22;20011;51.510;9.942;2023-03-01T11:11:24;4.00;91.50
33673;DHT22;20011;51.510;9.942;2023-03-01T11:16:26;4.40;92.30
33673;DHT22;20011;51.510;9.942;2023-03-01T11:18:57;3.80;91.60
33673;DHT22;20011;51.510;9.942;2023-03-01T11:21:25;3.00;90.60
33673;DHT22;20011;51.510;9.942;2023-03-01T11:23:54;3.60;89.80
33673;DHT22;20011;51.510;9.942;2023-03-01T11:26:21;3.20;89.30
33673;DHT22;20011;51.510;9.942;2023-03-01T11:28:50;6.90;89.80
33673;DHT22;20011;51.510;9.942;2023-03-01T11:31:18;5.00;88.10
33673;DHT22;20011;51.510;9.942;2023-03-01T11:33:50;3.20;88.30
33673;DHT22;20011;51.510;9.942;2023-03-01T11:41:59;4.00;85.50
33673;DHT22;20011;51.510;9.942;2023-03-01T11:44:46;4.10;86.70
33673;DHT22;20011;51.510;9.942;2023-03-01T11:49:54;7.20;89.60
33673;DHT22;20011;51.510;9.942;2023-03-01T11:55:45;4.40;84.50
33673;DHT22;20011;51.510;9.942;2023-03-01T12:04:21;4.40;82.80
33673;DHT22;20011;51.510;9.942;2023-03-01T12:07:00;4.50;83.60
33673;DHT22;20011;51.510;9.942;2023-03-01T12:15:48;4.60;82.70
33673;DHT22;20011;51.510;9.942;2023-03-01T12:42:02;4.90;82.70
33673;DHT22;20011;51.510;9.942;2023-03-01T12:50:20;5.00;84.70
33673;DHT22;20011;51.510;9.942;2023-03-01T12:52:55;5.00;84.70
33673;DHT22;20011;51.510;9.942;2023-03-01T12:55:28;5.10;84.30
33673;DHT22;20011;51.510;9.942;2023-03-01T12:58:23;5.10;84.00
33673;DHT22;20011;51.510;9.942;2023-03-01T13:11:54;5.30;83.40
33673;DHT22;20011;51.510;9.942;2023-03-01T13:16:53;5.30;83.90
33673;DHT22;20011;51.510;9.942;2023-03-01T13:19:22;5.30;84.30
33673;DHT22;20011;51.510;9.942;2023-03-01T13:21:52;5.30;84.30
33673;DHT22;20011;51.510;9.942;2023-03-01T13:29:45;8.10;86.00
33673;DHT22;20011;51.510;9.942;2023-03-01T13:42:53;5.50;83.30
33673;DHT22;20011;51.510;9.942;2023-03-01T13:45:42;5.50;83.50
33673;DHT22;20011;51.510;9.942;2023-03-01T13:48:29;5.50;83.90
33673;DHT22;20011;51.510;9.942;2023-03-01T13:51:06;5.50;83.50
33673;DHT22;20011;51.510;9.942;2023-03-01T13:53:37;5.50;83.60
33673;DHT22;20011;51.510;9.942;2023-03-01T13:56:17;5.50;83.00
33673;DHT22;20011;51.510;9.942;2023-03-01T13:58:49;5.50;82.90
33673;DHT22;20011;51.510;9.942;2023-03-01T14:01:26;5.50;82.80
33673;DHT22;20011;51.510;9.942;2023-03-01T14:03:54;5.60;82.90
33673;DHT22;20011;51.510;9.942;2023-03-01T14:06:33;5.70;81.50
33673;DHT22;20011;51.510;9.942;2023-03-01T14:09:10;5.70;82.00
33673;DHT22;20011;51.510;9.942;2023-03-01T14:12:06;5.70;82.70
33673;DHT22;20011;51.510;9.942;2023-03-01T14:19:58;5.70;81.70
33673;DHT22;20011;51.510;9.942;2023-03-01T14:22:35;5.70;81.90
33673;DHT22;20011;51.510;9.942;2023-03-01T14:27:37;5.70;80.50
33673;DHT22;20011;51.510;9.942;2023-03-01T14:30:14;5.80;80.80
33673;DHT22;20011;51.510;9.942;2023-03-01T14:32:42;5.80;80.60
33673;DHT22;20011;51.510;9.942;2023-03-01T14:35:23;5.80;80.70
33673;DHT22;20011;51.510;9.942;2023-03-01T14:40:25;5.80;79.10
33673;DHT22;20011;51.510;9.942;2023-03-01T14:42:53;5.80;79.00
33673;DHT22;20011;51.510;9.942;2023-03-01T14:45:21;6.40;78.60
33673;DHT22;20011;51.510;9.942;2023-03-01T14:47:50;5.60;78.60
33673;DHT22;20011;51.510;9.942;2023-03-01T14:50:25;5.80;78.80
33673;DHT22;20011;51.510;9.942;2023-03-01T14:53:01;5.90;78.00
33673;DHT22;20011;51.510;9.942;2023-03-01T14:55:37;5.90;78.00
33673;DHT22;20011;51.510;9.942;2023-03-01T14:58:13;6.00;78.40
33673;DHT22;20011;51.510;9.942;2023-03-01T15:00:52;5.90;78.80
33673;DHT22;20011;51.510;9.942;2023-03-01T15:03:31;6.00;78.40
33673;DHT22;20011;51.510;9.942;2023-03-01T15:06:00;6.00;78.70
33673;DHT22;20011;51.510;9.942;2023-03-01T15:11:29;6.00;77.90
33673;DHT22;20011;51.510;9.942;2023-03-01T15:13:58;6.00;78.30
33673;DHT22;20011;51.510;9.942;2023-03-01T15:16:33;6.30;79.00
33673;DHT22;20011;51.510;9.942;2023-03-01T15:19:03;6.00;78.70
33673;DHT22;20011;51.510;9.942;2023-03-01T15:21:37;6.00;78.60
33673;DHT22;20011;51.510;9.942;2023-03-01T15:29:23;6.00;78.30
33673;DHT22;20011;51.510;9.942;2023-03-01T15:32:05;6.10;78.30
33673;DHT22;20011;51.510;9.942;2023-03-01T15:34:37;6.10;77.70
33673;DHT22;20011;51.510;9.942;2023-03-01T15:37:06;6.10;77.20
33673;DHT22;20011;51.510;9.942;2023-03-01T15:39:42;6.10;77.90
33673;DHT22;20011;51.510;9.942;2023-03-01T15:45:21;6.10;77.20
33673;DHT22;20011;51.510;9.942;2023-03-01T15:47:54;6.00;77.10
33673;DHT22;20011;51.510;9.942;2023-03-01T15:52:57;6.00;75.60
33673;DHT22;20011;51.510;9.942;2023-03-01T15:55:27;6.10;73.70
33673;DHT22;20011;51.510;9.942;2023-03-01T15:58:00;6.10;73.90
33673;DHT22;20011;51.510;9.942;2023-03-01T16:00:27;6.10;73.40
33673;DHT22;20011;51.510;9.942;2023-03-01T16:02:55;6.10;74.80
33673;DHT22;20011;51.510;9.942;2023-03-01T16:05:24;6.00;73.50
33673;DHT22;20011;51.510;9.942;2023-03-01T16:07:52;7.30;73.40
33673;DHT22;20011;51.510;9.942;2023-03-01T16:10:19;6.00;72.20
33673;DHT22;20011;51.510;9.942;2023-03-01T16:12:47;6.00;71.60
33673;DHT22;20011;51.510;9.942;2023-03-01T16:15:26;6.00;71.60
33673;DHT22;20011;51.510;9.942;2023-03-01T16:17:56;6.00;72.00
33673;DHT22;20011;51.510;9.942;2023-03-01T16:20:25;6.00;72.00
33673;DHT22;20011;51.510;9.942;2023-03-01T16:23:00;6.00;71.60
33673;DHT22;20011;51.510;9.942;2023-03-01T16:25:28;6.00;71.20
33673;DHT22;20011;51.510;9.942;2023-03-01T16:27:56;6.00;69.80
33673;DHT22;20011;51.510;9.942;2023-03-01T16:30:25;6.10;70.30
33673;DHT22;20011;51.510;9.942;2023-03-01T16:32:52;6.00;70.50
33673;DHT22;20011;51.510;9.942;2023-03-01T16:35:20;6.00;70.60
33673;DHT22;20011;51.510;9.942;2023-03-01T16:37:48;6.00;70.40
33673;DHT22;20011;51.510;9.942;2023-03-01T16:40:21;6.00;70.30
33673;DHT22;20011;51.510;9.942;2023-03-01T16:42:49;6.00;70.10
33673;DHT22;20011;51.510;9.942;2023-03-01T16:45:18;6.00;69.70
33673;DHT22;20011;51.510;9.942;2023-03-01T16:47:51;6.00;70.80
33673;DHT22;20011;51.510;9.942;2023-03-01T16:50:21;6.00;70.50
33673;DHT22;20011;51.510;9.942;2023-03-01T16:52:48;6.00;70.90
33673;DHT22;20011;51.510;9.942;2023-03-01T16:55:15;6.00;70.10
33673;DHT22;20011;51.510;9.942;2023-03-01T16:57:42;6.00;70.00
33673;DHT22;20011;51.510;9.942;2023-03-01T17:00:11;5.90;69.60
33673;DHT22;20011;51.510;9.942;2023-03-01T17:02:40;5.90;69.90
33673;DHT22;20011;51.510;9.942;2023-03-01T17:05:08;5.90;69.00
33673;DHT22;20011;51.510;9.942;2023-03-01T17:07:36;5.90;69.40
33673;DHT22;20011;51.510;9.942;2023-03-01T17:10:05;5.90;69.60
33673;DHT22;20011;51.510;9.942;2023-03-01T17:12:35;5.90;69.90
33673;DHT22;20011;51.510;9.942;2023-03-01T17:15:04;5.80;69.90
33673;DHT22;20011;51.510;9.942;2023-03-01T17:17:32;5.80;69.80
33673;DHT22;20011;51.510;9.942;2023-03-01T17:19:59;5.70;70.40
33673;DHT22;20011;51.510;9.942;2023-03-01T17:22:30;5.80;71.10
33673;DHT22;20011;51.510;9.942;2023-03-01T17:24:57;5.80;71.50
33673;DHT22;20011;51.510;9.942;2023-03-01T17:27:24;5.80;71.80
33673;DHT22;20011;51.510;9.942;2023-03-01T17:34:46;5.70;70.60
33673;DHT22;20011;51.510;9.942;2023-03-01T17:37:13;5.70;71.20
33673;DHT22;20011;51.510;9.942;2023-03-01T17:39:40;5.70;71.50
33673;DHT22;20011;51.510;9.942;2023-03-01T17:42:07;5.70;71.70
33673;DHT22;20011;51.510;9.942;2023-03-01T17:44:35;5.70;72.00
33673;DHT22;20011;51.510;9.942;2023-03-01T17:47:03;5.70;71.80
33673;DHT22;20011;51.510;9.942;2023-03-01T17:49:31;5.60;72.20
33673;DHT22;20011;51.510;9.942;2023-03-01T17:51:58;5.60;73.30
33673;DHT22;20011;51.510;9.942;2023-03-01T17:54:26;5.60;72.20
33673;DHT22;20011;51.510;9.942;2023-03-01T17:59:22;5.60;71.60
33673;DHT22;20011;51.510;9.942;2023-03-01T18:01:49;5.60;72.30
33673;DHT22;20011;51.510;9.942;2023-03-01T18:04:16;5.60;72.40
33673;DHT22;20011;51.510;9.942;2023-03-01T18:09:11;5.60;73.60
33673;DHT22;20011;51.510;9.942;2023-03-01T18:11:38;5.60;74.00
33673;DHT22;20011;51.510;9.942;2023-03-01T18:14:07;6.50;74.10
33673;DHT22;20011;51.510;9.942;2023-03-01T18:19:02;5.50;73.10
33673;DHT22;20011;51.510;9.942;2023-03-01T18:23:57;5.40;73.00
33673;DHT22;20011;51.510;9.942;2023-03-01T18:26:27;5.40;73.80
33673;DHT22;20011;51.510;9.942;2023-03-01T18:28:56;5.40;73.70
33673;DHT22;20011;51.510;9.942;2023-03-01T18:31:29;5.40;73.70
33673;DHT22;20011;51.510;9.942;2023-03-01T18:33:59;5.40;74.60
33673;DHT22;20011;51.510;9.942;2023-03-01T18:36:29;5.40;74.20